Time;durP1;ratioP1;P1;durP2;ratioP2;P2;SDS_P1;SDS_P2;PMS_P1;PMS_P2;Temp;Humidity;BMP_temperature;BMP_pressure;BME280_temperature;BME280_humidity;BME280_pressure;Samples;Min_cycle;Max_cycle;Signal;HPM_P1;HPM_P2
2021/03/13 00:00:51;;;;;;;2.1;1.7;;;;;;;;;;;;;
2021/03/13 00:03:16;;;;;;;3.2;2.3;;;;;;;;;;;;;
2021/03/13 00:05:42;;;;;;;9.1;6.9;;;;;;;;;;;;;
2021/03/13 00:08:07;;;;;;;6.2;1.7;;;;;;;;;;;;;
2021/03/13 00:10:41;;;;;;;2.4;1.4;;;;;;;;;;;;;
2021/03/13 00:13:10;;;;;;;2.2;1.6;;;;;;;;;;;;;
2021/03/13 00:15:37;;;;;;;3.1;1.4;;;;;;;;;;;;;
2021/03/13 00:18:09;;;;;;;1.1;1;;;;;;;;;;;;;
2021/03/13 00:20:41;;;;;;;1.2;1;;;;;;;;;;;;;
2021/03/13 00:23:07;;;;;;;1.2;1;;;;;;;;;;;;;
2021/03/13 00:25:33;;;;;;;0.6;0.6;;;;;;;;;;;;;
2021/03/13 00:27:59;;;;;;;0.6;0.6;;;;;;;;;;;;;
2021/03/13 00:30:24;;;;;;;0.6;0.6;;;;;;;;;;;;;
2021/03/13 00:32:50;;;;;;;2.2;1;;;;;;;;;;;;;
2021/03/13 00:35:15;;;;;;;1.3;0.7;;;;;;;;;;;;;
2021/03/13 00:37:41;;;;;;;1.1;0.8;;;;;;;;;;;;;
2021/03/13 00:40:06;;;;;;;1.1;0.7;;;;;;;;;;;;;
2021/03/13 00:42:33;;;;;;;2.2;1.4;;;;;;;;;;;;;
2021/03/13 00:44:58;;;;;;;0.7;0.6;;;;;;;;;;;;;
2021/03/13 00:47:24;;;;;;;1.9;1.4;;;;;;;;;;;;;
2021/03/13 00:49:49;;;;;;;1.3;0.9;;;;;;;;;;;;;
2021/03/13 00:52:15;;;;;;;2.2;1.5;;;;;;;;;;;;;
2021/03/13 00:54:40;;;;;;;4.4;1.4;;;;;;;;;;;;;
2021/03/13 00:57:06;;;;;;;10.8;1;;;;;;;;;;;;;
2021/03/13 00:59:31;;;;;;;0.7;0.7;;;;;;;;;;;;;
2021/03/13 01:01:57;;;;;;;0.7;0.7;;;;;;;;;;;;;
2021/03/13 01:04:24;;;;;;;1.9;1.1;;;;;;;;;;;;;
2021/03/13 01:06:48;;;;;;;0.6;0.6;;;;;;;;;;;;;
2021/03/13 01:09:14;;;;;;;1.5;0.9;;;;;;;;;;;;;
2021/03/13 01:11:41;;;;;;;2.4;1.3;;;;;;;;;;;;;
2021/03/13 01:14:06;;;;;;;0.9;0.7;;;;;;;;;;;;;
2021/03/13 01:16:34;;;;;;;2.4;1.1;;;;;;;;;;;;;
2021/03/13 01:18:59;;;;;;;1.7;0.7;;;;;;;;;;;;;
2021/03/13 01:21:25;;;;;;;2.5;1.3;;;;;;;;;;;;;
2021/03/13 01:23:50;;;;;;;0.6;0.5;;;;;;;;;;;;;
2021/03/13 01:26:16;;;;;;;1.1;0.9;;;;;;;;;;;;;
2021/03/13 01:28:41;;;;;;;2.1;0.8;;;;;;;;;;;;;
2021/03/13 01:31:07;;;;;;;0.7;0.6;;;;;;;;;;;;;
2021/03/13 01:33:32;;;;;;;2.8;1;;;;;;;;;;;;;
2021/03/13 01:35:58;;;;;;;6.1;2.9;;;;;;;;;;;;;
2021/03/13 01:38:23;;;;;;;4.3;2.4;;;;;;;;;;;;;
2021/03/13 01:40:49;;;;;;;4;1.7;;;;;;;;;;;;;
2021/03/13 01:43:15;;;;;;;2.8;1.9;;;;;;;;;;;;;
2021/03/13 01:45:40;;;;;;;3.5;1.6;;;;;;;;;;;;;
2021/03/13 01:48:05;;;;;;;2.3;1.6;;;;;;;;;;;;;
2021/03/13 01:50:34;;;;;;;3.5;1.5;;;;;;;;;;;;;
2021/03/13 01:52:59;;;;;;;3.8;2.5;;;;;;;;;;;;;
2021/03/13 01:55:25;;;;;;;1.2;0.8;;;;;;;;;;;;;
2021/03/13 01:57:50;;;;;;;1.3;1.2;;;;;;;;;;;;;
2021/03/13 02:00:15;;;;;;;0.9;0.6;;;;;;;;;;;;;
2021/03/13 02:02:40;;;;;;;0.6;0.6;;;;;;;;;;;;;
2021/03/13 02:05:06;;;;;;;0.9;0.8;;;;;;;;;;;;;
2021/03/13 02:07:31;;;;;;;4.1;1.4;;;;;;;;;;;;;
2021/03/13 02:09:56;;;;;;;1.5;1.3;;;;;;;;;;;;;
2021/03/13 02:12:21;;;;;;;4.6;1.5;;;;;;;;;;;;;
2021/03/13 02:14:46;;;;;;;5.2;1.6;;;;;;;;;;;;;
2021/03/13 02:17:12;;;;;;;0.8;0.8;;;;;;;;;;;;;
2021/03/13 02:19:37;;;;;;;1;0.9;;;;;;;;;;;;;
2021/03/13 02:22:02;;;;;;;0.7;0.6;;;;;;;;;;;;;
2021/03/13 02:24:28;;;;;;;0.3;0.3;;;;;;;;;;;;;
2021/03/13 02:26:53;;;;;;;0.9;0.7;;;;;;;;;;;;;
2021/03/13 02:29:18;;;;;;;1.1;0.8;;;;;;;;;;;;;
2021/03/13 02:31:43;;;;;;;0.8;0.8;;;;;;;;;;;;;
2021/03/13 02:34:08;;;;;;;0.5;0.5;;;;;;;;;;;;;
2021/03/13 02:36:33;;;;;;;3.6;1;;;;;;;;;;;;;
2021/03/13 02:38:58;;;;;;;2.1;0.8;;;;;;;;;;;;;
2021/03/13 02:41:24;;;;;;;1.1;0.7;;;;;;;;;;;;;
2021/03/13 02:43:49;;;;;;;1;0.6;;;;;;;;;;;;;
2021/03/13 02:46:14;;;;;;;1.6;0.8;;;;;;;;;;;;;
2021/03/13 02:48:39;;;;;;;0.3;0.3;;;;;;;;;;;;;
2021/03/13 02:51:04;;;;;;;1.1;0.6;;;;;;;;;;;;;
2021/03/13 02:53:29;;;;;;;0.2;0.2;;;;;;;;;;;;;
2021/03/13 02:55:54;;;;;;;1.2;0.6;;;;;;;;;;;;;
2021/03/13 02:58:20;;;;;;;0.5;0.5;;;;;;;;;;;;;
2021/03/13 03:00:47;;;;;;;0.9;0.7;;;;;;;;;;;;;
2021/03/13 03:03:12;;;;;;;1.3;1;;;;;;;;;;;;;
2021/03/13 03:05:39;;;;;;;1.5;0.8;;;;;;;;;;;;;
2021/03/13 03:08:04;;;;;;;0.5;0.5;;;;;;;;;;;;;
2021/03/13 03:10:31;;;;;;;1;0.8;;;;;;;;;;;;;
2021/03/13 03:12:56;;;;;;;1.9;0.7;;;;;;;;;;;;;
2021/03/13 03:15:27;;;;;;;0.7;0.4;;;;;;;;;;;;;
2021/03/13 03:17:55;;;;;;;0.3;0.3;;;;;;;;;;;;;
2021/03/13 03:20:20;;;;;;;0.5;0.4;;;;;;;;;;;;;
2021/03/13 03:22:46;;;;;;;3.1;0.7;;;;;;;;;;;;;
2021/03/13 03:25:11;;;;;;;0.7;0.6;;;;;;;;;;;;;
2021/03/13 03:27:49;;;;;;;1.3;0.6;;;;;;;;;;;;;
2021/03/13 03:30:02;;;;;;;5;1.9;;;;;;;;;;;;;
2021/03/13 03:32:28;;;;;;;3.4;1.8;;;;;;;;;;;;;
2021/03/13 03:34:53;;;;;;;3.3;2.3;;;;;;;;;;;;;
2021/03/13 03:37:19;;;;;;;4;1.6;;;;;;;;;;;;;
2021/03/13 03:39:44;;;;;;;3.1;1.5;;;;;;;;;;;;;
2021/03/13 03:42:10;;;;;;;2.9;2.2;;;;;;;;;;;;;
2021/03/13 03:44:35;;;;;;;26.8;12.4;;;;;;;;;;;;;
2021/03/13 03:47:01;;;;;;;5.2;3.8;;;;;;;;;;;;;
2021/03/13 03:49:27;;;;;;;2.5;1.3;;;;;;;;;;;;;
2021/03/13 03:51:52;;;;;;;25.5;13;;;;;;;;;;;;;
2021/03/13 03:54:18;;;;;;;22.7;13.4;;;;;;;;;;;;;
2021/03/13 03:56:44;;;;;;;6.8;1.6;;;;;;;;;;;;;
2021/03/13 03:59:09;;;;;;;3;0.9;;;;;;;;;;;;;
2021/03/13 04:02:31;;;;;;;0.5;0.5;;;;;;;2.49;69.21387;931.5779;;;;
2021/03/13 04:04:56;;;;;;;1.4;0.7;;;;;;;2.55;69.34766;931.5475;;;;
2021/03/13 04:07:22;;;;;;;0.9;0.7;;;;;;;2.32;70.64355;931.6303;;;;
2021/03/13 04:09:47;;;;;;;3.1;1.7;;;;;;;2.21;71.38574;931.5979;;;;
2021/03/13 04:12:12;;;;;;;1.2;0.6;;;;;;;2.33;72.1123;931.5942;;;;
2021/03/13 04:14:38;;;;;;;1.8;1.2;;;;;;;2.33;71.57324;931.6516;;;;
2021/03/13 04:17:04;;;;;;;1.4;0.8;;;;;;;2.41;71.21777;931.4342;;;;
2021/03/13 04:19:29;;;;;;;5.1;1.1;;;;;;;2.52;70.22656;931.3918;;;;
2021/03/13 04:21:54;;;;;;;2.3;1.4;;;;;;;2.57;70.03418;931.4805;;;;
2021/03/13 04:24:24;;;;;;;0.8;0.8;;;;;;;2.61;70.15332;931.4821;;;;
2021/03/13 04:26:50;;;;;;;3.1;1.8;;;;;;;2.51;70.43848;931.4991;;;;
2021/03/13 04:29:22;;;;;;;1.9;1.2;;;;;;;2.3;70.77539;931.4434;;;;
2021/03/13 04:31:47;;;;;;;1.3;1;;;;;;;2.35;70.53613;931.3892;;;;
2021/03/13 04:34:16;;;;;;;1.9;1.1;;;;;;;2.45;70.69824;931.437;;;;
2021/03/13 04:36:41;;;;;;;1.9;1.3;;;;;;;2.21;71.21777;931.517;;;;
2021/03/13 04:39:06;;;;;;;3.2;1.2;;;;;;;2.28;71.13965;931.4467;;;;
2021/03/13 04:41:34;;;;;;;2.3;1.2;;;;;;;2.34;72.24805;931.3739;;;;
2021/03/13 04:43:59;;;;;;;1.5;1.2;;;;;;;2.43;71.91602;931.3908;;;;
2021/03/13 04:46:25;;;;;;;3.7;1.3;;;;;;;2.52;70.94531;931.392;;;;
2021/03/13 04:48:50;;;;;;;1.8;1.1;;;;;;;2.52;70.37305;931.3627;;;;
2021/03/13 04:51:17;;;;;;;1.5;0.8;;;;;;;2.5;70.4707;931.2656;;;;
2021/03/13 04:53:42;;;;;;;2.7;1.1;;;;;;;2.52;70.96777;931.2867;;;;
2021/03/13 04:56:08;;;;;;;1.7;0.9;;;;;;;2.46;71.2373;931.3084;;;;
2021/03/13 04:58:33;;;;;;;3.7;2.4;;;;;;;2.51;71.09961;931.3734;;;;
2021/03/13 05:01:00;;;;;;;7.9;1.2;;;;;;;2.33;71.83203;931.2466;;;;
2021/03/13 05:03:26;;;;;;;1.6;1.1;;;;;;;2.18;72.53418;931.2692;;;;
2021/03/13 05:05:51;;;;;;;1.9;1.1;;;;;;;2.23;72.5752;931.3951;;;;
2021/03/13 05:08:16;;;;;;;3.8;1;;;;;;;2.2;72.58398;931.3861;;;;
2021/03/13 05:10:47;;;;;;;2.4;1.5;;;;;;;2.22;72.38477;931.4592;;;;
2021/03/13 05:13:14;;;;;;;5;2.7;;;;;;;2.31;72.42188;931.3517;;;;
2021/03/13 05:15:43;;;;;;;0.3;0.3;;;;;;;2.27;72.97559;931.1983;;;;
2021/03/13 05:18:14;;;;;;;1.7;0.7;;;;;;;2.26;72.625;931.392;;;;
2021/03/13 05:20:43;;;;;;;1.4;0.9;;;;;;;2.34;72.57129;931.3055;;;;
2021/03/13 05:23:09;;;;;;;1.6;1.1;;;;;;;2.41;72.14746;931.296;;;;
2021/03/13 05:25:34;;;;;;;7;1.3;;;;;;;2.34;71.77832;931.257;;;;
2021/03/13 05:27:59;;;;;;;0.8;0.8;;;;;;;2.46;71.27148;931.1756;;;;
2021/03/13 05:30:25;;;;;;;1.1;0.8;;;;;;;2.46;70.55371;931.1467;;;;
2021/03/13 05:32:50;;;;;;;1.6;1;;;;;;;2.53;70.66699;931.0189;;;;
2021/03/13 05:35:21;;;;;;;0.6;0.5;;;;;;;2.65;70.04785;931.1113;;;;
2021/03/13 05:37:46;;;;;;;4.2;0.9;;;;;;;2.59;69.81445;931.0325;;;;
2021/03/13 05:40:15;;;;;;;1.4;0.8;;;;;;;2.69;69.91895;931.0527;;;;
2021/03/13 05:42:40;;;;;;;0.7;0.6;;;;;;;2.77;69.86523;931.0076;;;;
2021/03/13 05:45:10;;;;;;;1.6;0.9;;;;;;;2.8;69.97168;930.9789;;;;
2021/03/13 05:47:36;;;;;;;2.2;1.4;;;;;;;2.84;69.88867;931.0067;;;;
2021/03/13 05:50:03;;;;;;;3;1.6;;;;;;;2.84;69.71973;931.0555;;;;
2021/03/13 05:52:29;;;;;;;9;1.9;;;;;;;2.7;69.55176;930.9767;;;;
2021/03/13 05:54:55;;;;;;;4.4;2.4;;;;;;;2.41;70.76953;930.9402;;;;
2021/03/13 05:57:20;;;;;;;3.9;2.1;;;;;;;2.43;70.99805;931.009;;;;
2021/03/13 05:59:45;;;;;;;5.6;2.8;;;;;;;2.48;71.04004;931.0859;;;;
2021/03/13 06:02:11;;;;;;;4.5;1.8;;;;;;;2.56;72.06152;931.0355;;;;
2021/03/13 06:04:36;;;;;;;4.1;1.8;;;;;;;2.73;70.98047;931.0095;;;;
2021/03/13 06:07:02;;;;;;;1.5;1;;;;;;;2.64;70.62793;931.0347;;;;
2021/03/13 06:09:27;;;;;;;1.4;1.2;;;;;;;2.77;70.61621;931.0987;;;;
2021/03/13 06:11:56;;;;;;;4.8;1.7;;;;;;;2.82;71.62305;930.9684;;;;
2021/03/13 06:14:21;;;;;;;2.7;1.3;;;;;;;3;71.30566;930.9116;;;;
2021/03/13 06:17:02;;;;;;;3.4;1.8;;;;;;;3.35;69.80469;930.9375;;;;
2021/03/13 06:19:33;;;;;;;6.3;1.5;;;;;;;3.41;68.55566;931.0714;;;;
2021/03/13 06:21:58;;;;;;;3;0.8;;;;;;;3.65;67.30273;930.9553;;;;
2021/03/13 06:24:26;;;;;;;5.6;1.2;;;;;;;3.69;67.4873;930.8184;;;;
2021/03/13 06:26:52;;;;;;;1.9;1;;;;;;;3.64;66.64844;930.8347;;;;
2021/03/13 06:29:22;;;;;;;4.3;1.6;;;;;;;3.76;66.9043;930.6713;;;;
2021/03/13 06:31:47;;;;;;;2.9;0.9;;;;;;;3.76;66.28613;930.7475;;;;
2021/03/13 06:34:12;;;;;;;2.2;0.7;;;;;;;3.84;66.33203;930.7859;;;;
2021/03/13 06:36:41;;;;;;;1.2;0.9;;;;;;;3.97;65.1377;930.6965;;;;
2021/03/13 06:39:06;;;;;;;2.4;1.1;;;;;;;4.02;65.24609;930.72;;;;
2021/03/13 06:41:33;;;;;;;1.8;0.6;;;;;;;4.03;65.50879;930.5502;;;;
2021/03/13 06:43:58;;;;;;;0.7;0.7;;;;;;;4.22;63.9502;930.6434;;;;
2021/03/13 06:46:23;;;;;;;1.7;0.8;;;;;;;4.16;64.5498;930.7277;;;;
2021/03/13 06:48:50;;;;;;;1.6;1;;;;;;;4.41;65.1377;930.5876;;;;
2021/03/13 06:51:15;;;;;;;2.5;1.2;;;;;;;4.69;63.53613;930.639;;;;
2021/03/13 06:53:40;;;;;;;0.6;0.5;;;;;;;5.06;61.14551;930.5927;;;;
2021/03/13 06:56:06;;;;;;;0.7;0.6;;;;;;;5.5;61.55859;930.5232;;;;
2021/03/13 06:58:31;;;;;;;4;1.2;;;;;;;6.25;59.25879;930.5535;;;;
2021/03/13 07:00:56;;;;;;;1.7;0.7;;;;;;;6.78;56.7627;930.4678;;;;
2021/03/13 07:03:22;;;;;;;6.3;0.9;;;;;;;7.05;55.80078;930.4434;;;;
2021/03/13 07:05:47;;;;;;;1.2;0.7;;;;;;;6.92;54.76563;930.3889;;;;
2021/03/13 07:08:12;;;;;;;1.9;1;;;;;;;7.04;54.58789;930.4846;;;;
2021/03/13 07:10:43;;;;;;;1.5;0.8;;;;;;;6.79;55.28027;930.4924;;;;
2021/03/13 07:13:12;;;;;;;6.8;1.5;;;;;;;6.79;56.11914;930.4378;;;;
2021/03/13 07:15:50;;;;;;;1.8;1;;;;;;;6.64;56.3584;930.3563;;;;
2021/03/13 07:18:23;;;;;;;1.8;0.9;;;;;;;6.86;55.90039;930.3574;;;;
2021/03/13 07:20:52;;;;;;;7.6;2.5;;;;;;;7.09;57.89063;930.2935;;;;
2021/03/13 07:23:19;;;;;;;1.6;1;;;;;;;7.51;54.36328;930.2231;;;;
2021/03/13 07:25:50;;;;;;;1.9;1;;;;;;;7.58;54.45215;930.2633;;;;
2021/03/13 07:28:20;;;;;;;1;0.7;;;;;;;7.8;52.41504;930.1517;;;;
2021/03/13 07:30:46;;;;;;;0.9;0.8;;;;;;;8.01;52.13477;930.1362;;;;
2021/03/13 07:33:15;;;;;;;6.7;1.2;;;;;;;8.18;53.82422;930.0341;;;;
2021/03/13 07:35:40;;;;;;;2;1;;;;;;;8.49;52.58984;930.0624;;;;
2021/03/13 07:38:06;;;;;;;1.2;0.9;;;;;;;8.99;49.05664;929.9478;;;;
2021/03/13 07:40:31;;;;;;;3.5;1.8;;;;;;;9.07;48.77051;929.9799;;;;
2021/03/13 07:42:59;;;;;;;2.7;1.4;;;;;;;9.02;48.25293;929.9615;;;;
2021/03/13 07:45:24;;;;;;;2.3;1.6;;;;;;;8.89;47.95313;930.0642;;;;
2021/03/13 07:47:49;;;;;;;6.5;2.5;;;;;;;8.76;50.92871;929.9112;;;;
2021/03/13 07:50:15;;;;;;;3.5;2.1;;;;;;;9.27;50.41016;929.8684;;;;
2021/03/13 07:52:40;;;;;;;5.1;1.5;;;;;;;9.74;48.81152;929.7957;;;;
2021/03/13 07:55:11;;;;;;;1.1;0.9;;;;;;;10.26;46.24512;929.7256;;;;
2021/03/13 07:57:39;;;;;;;0.6;0.6;;;;;;;10.85;47.1543;929.6028;;;;
2021/03/13 08:00:04;;;;;;;1.2;0.8;;;;;;;11.08;45.25879;929.6264;;;;
2021/03/13 08:02:29;;;;;;;2.6;1.5;;;;;;;11.83;40.20703;929.6649;;;;
2021/03/13 08:04:57;;;;;;;0.7;0.5;;;;;;;11.89;40.80762;929.4322;;;;
2021/03/13 08:07:21;;;;;;;1.3;0.7;;;;;;;12.02;41.26758;929.5947;;;;
2021/03/13 08:09:46;;;;;;;0.6;0.4;;;;;;;12.48;39.61328;929.5709;;;;
2021/03/13 08:12:14;;;;;;;0.5;0.3;;;;;;;12.38;34.91504;929.5256;;;;
2021/03/13 08:14:39;;;;;;;0.2;0.2;;;;;;;12.8;34.85645;929.5489;;;;
2021/03/13 08:17:07;;;;;;;0.8;0.3;;;;;;;14.67;32.30957;929.3703;;;;
2021/03/13 08:19:38;;;;;;;2;0.7;;;;;;;15.97;32.03613;929.3245;;;;
2021/03/13 08:22:05;;;;;;;0.7;0.2;;;;;;;15.59;30.03223;929.1458;;;;
2021/03/13 08:24:30;;;;;;;1.7;0.6;;;;;;;15.96;31.75781;929.2413;;;;
2021/03/13 08:27:01;;;;;;;0.5;0.4;;;;;;;16.32;30.4873;929.25;;;;
2021/03/13 08:29:26;;;;;;;1.8;0.4;;;;;;;17.29;29.10547;929.1353;;;;
2021/03/13 08:31:52;;;;;;;0.2;0.2;;;;;;;17.06;29.24121;929.0278;;;;
2021/03/13 08:34:17;;;;;;;0.1;0.1;;;;;;;16.89;29.80859;928.9835;;;;
2021/03/13 08:36:42;;;;;;;0.4;0.4;;;;;;;17.39;28.20703;929.0219;;;;
2021/03/13 08:39:07;;;;;;;0.3;0.3;;;;;;;17.94;29.12598;928.8649;;;;
2021/03/13 08:41:32;;;;;;;0.8;0.4;;;;;;;18.22;26.37891;928.8187;;;;
2021/03/13 08:43:59;;;;;;;2.2;0.6;;;;;;;18.17;26.03809;928.8156;;;;
2021/03/13 08:46:24;;;;;;;0.8;0.4;;;;;;;18.56;25.17773;928.7271;;;;
2021/03/13 08:48:50;;;;;;;0.6;0.2;;;;;;;20.16;24.47559;928.7023;;;;
2021/03/13 08:51:17;;;;;;;0.7;0.4;;;;;;;21.45;21.64355;928.6231;;;;
2021/03/13 08:53:42;;;;;;;0.7;0.2;;;;;;;21.7;20.73047;928.4857;;;;
2021/03/13 08:56:09;;;;;;;0.4;0.3;;;;;;;21.67;21.13867;928.4978;;;;
2021/03/13 08:58:36;;;;;;;0.8;0.3;;;;;;;19.46;22.49023;928.4224;;;;
2021/03/13 09:01:01;;;;;;;0.9;0.4;;;;;;;18.52;24.4082;928.3868;;;;
2021/03/13 09:03:26;;;;;;;0.7;0.3;;;;;;;18.29;25.16211;928.308;;;;
2021/03/13 09:05:51;;;;;;;0.1;0.1;;;;;;;18.96;23.41992;928.2766;;;;
2021/03/13 09:08:17;;;;;;;0.2;0.2;;;;;;;20.06;20.47852;928.1633;;;;
2021/03/13 09:10:49;;;;;;;0.1;0.1;;;;;;;20.87;19.75586;928.2146;;;;
2021/03/13 09:13:16;;;;;;;0.3;0.3;;;;;;;21.47;20.15723;928.1225;;;;
2021/03/13 09:15:53;;;;;;;0.2;0.2;;;;;;;22.06;19.92676;928.0908;;;;
2021/03/13 09:18:24;;;;;;;0;0;;;;;;;22.42;18.52344;927.9176;;;;
2021/03/13 09:20:57;;;;;;;0.2;0.1;;;;;;;22.74;19.26465;927.8912;;;;
2021/03/13 09:23:24;;;;;;;0;0;;;;;;;23.53;18.56934;927.8262;;;;
2021/03/13 09:25:49;;;;;;;0.2;0.2;;;;;;;23.29;22.03906;927.8313;;;;
2021/03/13 09:28:15;;;;;;;0.8;0.3;;;;;;;23.51;21.67383;927.8069;;;;
2021/03/13 09:30:44;;;;;;;0.8;0.5;;;;;;;22.78;23.08301;927.7378;;;;
2021/03/13 09:33:13;;;;;;;1.5;0.2;;;;;;;21.69;24.7002;927.7708;;;;
2021/03/13 09:35:40;;;;;;;0.6;0.2;;;;;;;20.8;26.56836;927.5807;;;;
2021/03/13 09:38:09;;;;;;;0.2;0.2;;;;;;;19.48;28.02637;927.7589;;;;
2021/03/13 09:40:33;;;;;;;0.4;0.3;;;;;;;19.69;27.14258;927.6528;;;;
2021/03/13 09:43:01;;;;;;;0.7;0.1;;;;;;;19.63;26.45117;927.6805;;;;
2021/03/13 09:45:26;;;;;;;0.4;0.3;;;;;;;19.49;27.45703;927.5136;;;;
2021/03/13 09:47:54;;;;;;;0.2;0.1;;;;;;;18.73;28.32813;927.4796;;;;
2021/03/13 09:50:18;;;;;;;0.1;0.1;;;;;;;19.43;27.2666;927.6403;;;;
2021/03/13 09:52:45;;;;;;;0.2;0.1;;;;;;;19.21;27.50879;927.5117;;;;
2021/03/13 09:55:11;;;;;;;0.3;0.3;;;;;;;20.29;25.6377;927.4891;;;;
2021/03/13 09:57:37;;;;;;;0.2;0.2;;;;;;;19.12;27.07227;927.4977;;;;
2021/03/13 10:00:03;;;;;;;0.1;0;;;;;;;18.51;29.25586;927.2852;;;;
2021/03/13 10:02:28;;;;;;;0.1;0.1;;;;;;;18.64;28.98535;927.4341;;;;
2021/03/13 10:04:55;;;;;;;0.1;0.1;;;;;;;18.87;27.85938;927.4705;;;;
2021/03/13 10:07:20;;;;;;;0.2;0.2;;;;;;;17.79;29.75391;927.3848;;;;
2021/03/13 10:09:47;;;;;;;0.2;0.2;;;;;;;17.37;30.65332;927.3786;;;;
2021/03/13 10:12:12;;;;;;;0.4;0.2;;;;;;;17.76;30.2627;927.4075;;;;
2021/03/13 10:14:37;;;;;;;0.1;0.1;;;;;;;18.55;28.18945;927.3423;;;;
2021/03/13 10:17:15;;;;;;;0;0;;;;;;;18.25;28.83203;927.3376;;;;
2021/03/13 10:19:44;;;;;;;0.1;0.1;;;;;;;18.65;28.50977;927.1891;;;;
2021/03/13 10:22:08;;;;;;;0;0;;;;;;;18.62;29.24023;927.198;;;;
2021/03/13 10:24:35;;;;;;;2.2;0.3;;;;;;;19.44;27.17383;927.2006;;;;
2021/03/13 10:27:04;;;;;;;1.6;0.3;;;;;;;19.48;28.24805;927.1945;;;;
2021/03/13 10:29:29;;;;;;;0.2;0.2;;;;;;;19.81;26.83496;927.128;;;;
2021/03/13 10:31:57;;;;;;;0.5;0.3;;;;;;;19.92;26.03711;927.1641;;;;
2021/03/13 10:34:22;;;;;;;0.3;0.2;;;;;;;19.92;26.88867;927.0823;;;;
2021/03/13 10:36:48;;;;;;;0.2;0.2;;;;;;;19.56;27.00586;927.0703;;;;
2021/03/13 10:39:18;;;;;;;0.3;0.1;;;;;;;17.91;28.6709;927.1175;;;;
2021/03/13 10:41:43;;;;;;;1;0.2;;;;;;;18.19;29.0957;926.9333;;;;
2021/03/13 10:44:11;;;;;;;0.2;0.2;;;;;;;17.32;30.51074;927.0408;;;;
2021/03/13 10:46:36;;;;;;;0.5;0.4;;;;;;;17.17;29.95508;927.0527;;;;
2021/03/13 10:49:02;;;;;;;0.7;0.3;;;;;;;17.69;30.0957;927.0139;;;;
2021/03/13 10:51:27;;;;;;;0.1;0;;;;;;;18.49;28.85938;926.9539;;;;
2021/03/13 10:53:55;;;;;;;0;0;;;;;;;18.94;28.49316;926.861;;;;
2021/03/13 10:56:20;;;;;;;0.5;0.3;;;;;;;19.01;28.27637;926.8055;;;;
2021/03/13 10:58:46;;;;;;;0.2;0.1;;;;;;;18.63;28.70605;926.8466;;;;
2021/03/13 11:01:11;;;;;;;0.2;0.1;;;;;;;19.44;27.65234;926.8099;;;;
2021/03/13 11:03:36;;;;;;;1.2;0.3;;;;;;;19.67;26.9209;926.8038;;;;
2021/03/13 11:06:01;;;;;;;0;0;;;;;;;19.37;28.52148;926.6208;;;;
2021/03/13 11:08:29;;;;;;;1.2;0.2;;;;;;;19.43;27.66211;926.4465;;;;
2021/03/13 11:10:56;;;;;;;0.2;0.2;;;;;;;19.09;28.75977;926.32;;;;
2021/03/13 11:13:23;;;;;;;0.1;0.1;;;;;;;18.86;28.86035;926.4318;;;;
2021/03/13 11:16:07;;;;;;;0.2;0.1;;;;;;;19.57;27.68359;926.4503;;;;
2021/03/13 11:18:39;;;;;;;0.4;0.2;;;;;;;19.78;26.61133;926.3315;;;;
2021/03/13 11:21:10;;;;;;;0.3;0.2;;;;;;;21.09;26.24609;926.2536;;;;
2021/03/13 11:23:35;;;;;;;0.6;0.2;;;;;;;21.51;25.84961;926.2805;;;;
2021/03/13 11:26:00;;;;;;;0.2;0.2;;;;;;;21.94;24.80859;926.28;;;;
2021/03/13 11:28:30;;;;;;;0.1;0.1;;;;;;;22.37;24.29199;926.2924;;;;
2021/03/13 11:30:55;;;;;;;0.2;0.2;;;;;;;22.2;24.2832;926.1764;;;;
2021/03/13 11:33:25;;;;;;;0.3;0.2;;;;;;;23.32;22.14648;926.19;;;;
2021/03/13 11:35:51;;;;;;;2.4;0.3;;;;;;;24.08;22.90332;926.118;;;;
2021/03/13 11:38:18;;;;;;;0.1;0.1;;;;;;;23.98;21.91992;926.0813;;;;
2021/03/13 11:40:43;;;;;;;0.2;0.1;;;;;;;24.83;20.85352;925.9465;;;;
2021/03/13 11:43:10;;;;;;;0.1;0.1;;;;;;;24.6;20.71289;925.9406;;;;
2021/03/13 11:45:35;;;;;;;0.1;0.1;;;;;;;24.41;20.73926;925.8397;;;;
2021/03/13 11:48:03;;;;;;;1.1;0.3;;;;;;;24.32;21.21777;925.758;;;;
2021/03/13 11:50:37;;;;;;;0.1;0.1;;;;;;;24.87;20.77246;925.7347;;;;
2021/03/13 11:53:04;;;;;;;0;0;;;;;;;26.07;19.7998;925.6494;;;;
2021/03/13 11:55:29;;;;;;;0.2;0.2;;;;;;;25.86;21.06641;925.5358;;;;
2021/03/13 11:57:54;;;;;;;0.2;0.1;;;;;;;26.32;19.78613;925.5856;;;;
2021/03/13 12:00:19;;;;;;;1.2;0.3;;;;;;;25.68;19.88867;925.4406;;;;
2021/03/13 12:02:47;;;;;;;0.2;0.2;;;;;;;25.61;20.45313;925.4446;;;;
2021/03/13 12:05:12;;;;;;;0.8;0.4;;;;;;;25.87;20.66504;925.5025;;;;
2021/03/13 12:07:39;;;;;;;0.3;0.1;;;;;;;24.88;20.53711;925.335;;;;
2021/03/13 12:10:04;;;;;;;0.1;0.1;;;;;;;25.41;19.6875;925.2379;;;;
2021/03/13 12:12:30;;;;;;;1.3;0.4;;;;;;;25.98;20.04395;925.2946;;;;
2021/03/13 12:14:55;;;;;;;1.6;0.1;;;;;;;26.23;19.25098;925.1474;;;;
2021/03/13 12:17:20;;;;;;;0.2;0.1;;;;;;;25.48;20.86035;925.0572;;;;
2021/03/13 12:19:46;;;;;;;0;0;;;;;;;25.69;20.36133;925.0518;;;;
2021/03/13 12:22:11;;;;;;;0.1;0.1;;;;;;;24.27;21.79297;925.1624;;;;
2021/03/13 12:24:37;;;;;;;0.5;0.2;;;;;;;23.7;22.78906;925.1394;;;;
2021/03/13 12:27:02;;;;;;;0.2;0.1;;;;;;;22.94;22.78516;925.1792;;;;
2021/03/13 12:29:30;;;;;;;0.3;0.2;;;;;;;23.24;22.83594;925.2236;;;;
2021/03/13 12:31:55;;;;;;;0.6;0.2;;;;;;;24.09;22.80859;925.1689;;;;
2021/03/13 12:34:22;;;;;;;0.1;0.1;;;;;;;24.32;21.87793;925.1357;;;;
2021/03/13 12:36:47;;;;;;;0.1;0.1;;;;;;;24.63;21.09082;925.062;;;;
2021/03/13 12:39:12;;;;;;;0;0;;;;;;;23.89;21.18555;924.9727;;;;
2021/03/13 12:41:38;;;;;;;0.1;0.1;;;;;;;22.19;24.42383;925.0596;;;;
2021/03/13 12:44:04;;;;;;;1.8;0.7;;;;;;;22.31;23.41016;924.9522;;;;
2021/03/13 12:46:29;;;;;;;1.4;0.3;;;;;;;21.06;25.6123;924.8095;;;;
2021/03/13 12:48:55;;;;;;;0.1;0.1;;;;;;;20.43;26.00879;924.8956;;;;
2021/03/13 12:51:20;;;;;;;0.3;0.2;;;;;;;20.12;27.92773;924.8058;;;;
2021/03/13 12:53:47;;;;;;;0;0;;;;;;;20.49;26.45605;924.8744;;;;
2021/03/13 12:56:12;;;;;;;0.4;0.2;;;;;;;21.43;24.52246;924.963;;;;
2021/03/13 12:58:37;;;;;;;0.2;0.2;;;;;;;22.37;23.70605;924.8792;;;;
2021/03/13 13:01:02;;;;;;;0.4;0.3;;;;;;;21.94;23.85938;924.9342;;;;
2021/03/13 13:03:30;;;;;;;0.2;0.2;;;;;;;20.26;26.55957;924.9931;;;;
2021/03/13 13:05:55;;;;;;;2.5;0.2;;;;;;;20.63;25.43555;924.9274;;;;
2021/03/13 13:08:20;;;;;;;0.2;0.1;;;;;;;20.69;26.81836;924.7809;;;;
2021/03/13 13:10:46;;;;;;;0.1;0.1;;;;;;;19.85;27.07129;924.8984;;;;
2021/03/13 13:13:12;;;;;;;0.2;0.2;;;;;;;19.5;27.29395;925.0779;;;;
2021/03/13 13:15:39;;;;;;;0.1;0.1;;;;;;;20.17;26.0752;925.0271;;;;
2021/03/13 13:18:05;;;;;;;1.6;0.3;;;;;;;19.84;26.05566;924.9167;;;;
2021/03/13 13:20:30;;;;;;;0.3;0.3;;;;;;;19.41;26.70605;924.7913;;;;
2021/03/13 13:22:56;;;;;;;0.1;0.1;;;;;;;18.7;28.18652;924.777;;;;
2021/03/13 13:25:22;;;;;;;0.2;0.2;;;;;;;18.17;29.78027;924.8215;;;;
2021/03/13 13:27:47;;;;;;;0.3;0.1;;;;;;;18.96;28.00586;924.8351;;;;
2021/03/13 13:30:13;;;;;;;0.1;0.1;;;;;;;19.13;27.34082;924.9028;;;;
2021/03/13 13:32:39;;;;;;;1.1;0.5;;;;;;;18.73;28.29395;924.7232;;;;
2021/03/13 13:35:07;;;;;;;0;0;;;;;;;19.22;27.83594;924.7515;;;;
2021/03/13 13:37:32;;;;;;;0;0;;;;;;;19.93;26.46973;924.7209;;;;
2021/03/13 13:39:57;;;;;;;0.1;0.1;;;;;;;19.51;27.90039;924.6828;;;;
2021/03/13 13:42:22;;;;;;;2.8;0.1;;;;;;;19.57;27.87012;924.7149;;;;
2021/03/13 13:44:48;;;;;;;0.1;0.1;;;;;;;20.16;27.46289;924.6981;;;;
2021/03/13 13:47:13;;;;;;;0.5;0.5;;;;;;;20.74;26.24902;924.81;;;;
2021/03/13 13:49:41;;;;;;;0.1;0.1;;;;;;;20.63;25.96191;924.7403;;;;
2021/03/13 13:52:05;;;;;;;0.3;0.2;;;;;;;21.03;25.51758;924.6622;;;;
2021/03/13 13:54:30;;;;;;;0.4;0.2;;;;;;;21.17;25.4668;924.709;;;;
2021/03/13 13:56:55;;;;;;;0.2;0.1;;;;;;;20.36;26.23828;924.7094;;;;
2021/03/13 13:59:21;;;;;;;0.3;0.2;;;;;;;19.74;26.48047;924.704;;;;
2021/03/13 14:01:46;;;;;;;0.5;0.3;;;;;;;19.62;26.90527;924.7047;;;;
2021/03/13 14:04:13;;;;;;;0.1;0.1;;;;;;;18.69;28.13965;924.8146;;;;
2021/03/13 14:06:38;;;;;;;0.1;0.1;;;;;;;18.88;27.89648;924.7103;;;;
2021/03/13 14:09:04;;;;;;;1.8;0.6;;;;;;;18.77;28.5166;924.6908;;;;
2021/03/13 14:11:30;;;;;;;0.1;0.1;;;;;;;18.39;28.70215;924.7206;;;;
2021/03/13 14:13:56;;;;;;;0.3;0.2;;;;;;;18.68;28.84961;924.7961;;;;
2021/03/13 14:16:21;;;;;;;0.1;0.1;;;;;;;18.56;28.73633;924.7104;;;;
2021/03/13 14:18:47;;;;;;;1;0.4;;;;;;;18.1;29.42676;924.8381;;;;
2021/03/13 14:21:12;;;;;;;0.9;0.3;;;;;;;18.02;29.8623;924.822;;;;
2021/03/13 14:23:39;;;;;;;0.2;0.2;;;;;;;17.94;30.29785;924.7825;;;;
2021/03/13 14:26:04;;;;;;;0.2;0.2;;;;;;;18.65;28.87012;924.7654;;;;
2021/03/13 14:28:30;;;;;;;0.3;0.2;;;;;;;18.26;28.68164;924.8401;;;;
2021/03/13 14:30:55;;;;;;;0.2;0.2;;;;;;;17.97;28.5;924.7859;;;;
2021/03/13 14:33:22;;;;;;;0.1;0.1;;;;;;;17.45;29.33691;924.7186;;;;
2021/03/13 14:35:47;;;;;;;1.1;0.5;;;;;;;17.49;29.32715;924.6505;;;;
2021/03/13 14:38:14;;;;;;;0.8;0.4;;;;;;;17.02;30.98828;924.4576;;;;
2021/03/13 14:40:39;;;;;;;0.6;0.3;;;;;;;16.87;30.95508;924.4927;;;;
2021/03/13 14:43:05;;;;;;;0.7;0.4;;;;;;;16.49;31.81934;924.6061;;;;
2021/03/13 14:45:30;;;;;;;0.4;0.4;;;;;;;16.63;31.19238;924.6519;;;;
2021/03/13 14:47:56;;;;;;;0.1;0.1;;;;;;;16.85;30.57129;924.3458;;;;
2021/03/13 14:50:22;;;;;;;1.1;0.5;;;;;;;16.95;30.27637;924.3139;;;;
2021/03/13 14:52:48;;;;;;;0.3;0.3;;;;;;;16.98;30.42969;924.3052;;;;
2021/03/13 14:55:13;;;;;;;0.2;0;;;;;;;17.25;30.29688;924.2916;;;;
2021/03/13 14:57:38;;;;;;;0.2;0.2;;;;;;;17.55;28.90234;924.2326;;;;
2021/03/13 15:00:04;;;;;;;0.2;0.2;;;;;;;17.56;29.1582;924.1406;;;;
2021/03/13 15:02:29;;;;;;;0.2;0.2;;;;;;;17.61;29.95117;924.2092;;;;
2021/03/13 15:04:55;;;;;;;1.1;0.6;;;;;;;17.37;29.67871;924.2034;;;;
2021/03/13 15:07:20;;;;;;;0.3;0.3;;;;;;;17.12;30.28809;924.1675;;;;
2021/03/13 15:09:49;;;;;;;0.5;0.4;;;;;;;16.77;31.26074;924.0694;;;;
2021/03/13 15:12:14;;;;;;;1.6;0.7;;;;;;;16.86;30.44336;924.0261;;;;
2021/03/13 15:14:41;;;;;;;0.9;0.6;;;;;;;16.86;30.4209;924.0341;;;;
2021/03/13 15:17:08;;;;;;;0.3;0.3;;;;;;;16.63;30.57813;923.9924;;;;
2021/03/13 15:19:34;;;;;;;0.3;0.2;;;;;;;17.02;29.63184;924.0581;;;;
2021/03/13 15:21:59;;;;;;;0.4;0.3;;;;;;;17.13;30.3584;924.1205;;;;
2021/03/13 15:24:24;;;;;;;0.4;0.1;;;;;;;17.35;29.57324;924.0691;;;;
2021/03/13 15:26:52;;;;;;;1.1;0.3;;;;;;;17.43;29.94922;924.0606;;;;
2021/03/13 15:29:17;;;;;;;0.3;0.2;;;;;;;17.06;30.20313;924.0051;;;;
2021/03/13 15:31:44;;;;;;;1.6;0.3;;;;;;;17.21;29.35547;924.0228;;;;
2021/03/13 15:34:09;;;;;;;0.3;0.2;;;;;;;17.15;30.05859;923.9744;;;;
2021/03/13 15:36:36;;;;;;;0.2;0.2;;;;;;;16.95;29.68555;923.9767;;;;